Time;durP1;ratioP1;P1;durP2;ratioP2;P2;SDS_P1;SDS_P2;PMS_P1;PMS_P2;Temp;Humidity;BMP_temperature;BMP_pressure;BME280_temperature;BME280_humidity;BME280_pressure;Samples;Min_cycle;Max_cycle;Signal;HPM_P1;HPM_P2
2022/04/25 00:05:57;;;;;;;15.33;12.03;;;10.80;93.40;;;;;;21251468;27;20245;-68
2022/04/25 00:15:59;;;;;;;16.00;11.90;;;10.80;93.80;;;;;;21251051;27;20208;-68
2022/04/25 00:26:01;;;;;;;15.37;12.33;;;10.80;93.90;;;;;;21250013;27;20239;-66
2022/04/25 00:36:03;;;;;;;14.23;12.60;;;10.90;94.10;;;;;;21249202;27;20208;-66
2022/04/25 00:46:06;;;;;;;14.60;12.27;;;10.80;94.20;;;;;;21248639;27;20254;-68
2022/04/25 00:56:08;;;;;;;14.97;12.10;;;10.60;94.10;;;;;;21248453;27;20714;-67
2022/04/25 01:06:11;;;;;;;14.67;12.37;;;10.50;94.40;;;;;;21246961;27;20236;-67
2022/04/25 01:16:12;;;;;;;13.83;12.27;;;10.40;94.50;;;;;;21247197;28;20275;-67
2022/04/25 01:36:34;;;;;;;15.47;11.57;;;10.30;94.90;;;;;;21246463;28;20209;-67
2022/04/25 01:46:39;;;;;;;12.77;11.00;;;10.30;95.00;;;;;;21247226;28;20214;-67
2022/04/25 01:56:40;;;;;;;14.10;10.73;;;10.30;94.80;;;;;;21245700;28;20232;-67
2022/04/25 02:06:42;;;;;;;13.47;10.33;;;10.30;94.70;;;;;;21245302;28;20214;-66
2022/04/25 02:16:44;;;;;;;12.13;9.93;;;10.30;94.50;;;;;;21244848;28;20572;-66
2022/04/25 02:26:48;;;;;;;13.10;10.37;;;10.30;94.60;;;;;;21257416;27;20675;-67
2022/04/25 02:36:50;;;;;;;17.57;10.73;;;10.40;94.60;;;;;;21261957;27;20234;-68
2022/04/25 02:46:51;;;;;;;17.53;10.83;;;10.40;94.60;;;;;;21258032;27;20200;-66
2022/04/25 02:56:53;;;;;;;13.53;11.17;;;10.30;94.20;;;;;;21257219;27;20273;-69
2022/04/25 03:06:55;;;;;;;12.73;10.50;;;10.20;93.90;;;;;;21256480;27;20631;-66
2022/04/25 03:16:56;;;;;;;13.87;11.60;;;10.30;93.90;;;;;;21255576;27;20230;-69
2022/04/25 03:26:58;;;;;;;14.43;11.53;;;10.40;94.10;;;;;;21254962;27;20661;-69
2022/04/25 03:37:00;;;;;;;13.77;11.57;;;10.50;93.70;;;;;;21253693;27;20227;-68
2022/04/25 03:47:02;;;;;;;15.27;12.23;;;10.40;93.60;;;;;;21253223;27;20211;-69
2022/04/25 03:57:10;;;;;;;15.73;13.20;;;10.50;93.60;;;;;;21252275;27;20636;-69
2022/04/25 04:07:11;;;;;;;18.13;12.60;;;10.50;93.50;;;;;;21251607;27;20252;-69
2022/04/25 04:17:17;;;;;;;17.17;13.47;;;10.50;93.30;;;;;;21250406;27;20275;-66
2022/04/25 04:27:19;;;;;;;17.77;13.47;;;10.50;93.50;;;;;;21250117;27;20237;-67
2022/04/25 04:37:21;;;;;;;16.73;14.00;;;10.50;93.50;;;;;;21248942;27;20233;-66
2022/04/25 04:47:22;;;;;;;19.30;15.00;;;10.60;93.30;;;;;;21246200;27;20215;-67
2022/04/25 04:57:24;;;;;;;17.70;14.27;;;10.50;93.30;;;;;;21247818;27;20245;-67
2022/04/25 05:07:26;;;;;;;19.97;13.47;;;10.40;93.20;;;;;;21247020;27;20215;-67
2022/04/25 05:17:28;;;;;;;23.90;13.80;;;10.40;93.50;;;;;;21246050;28;20234;-67
2022/04/25 05:27:29;;;;;;;19.73;15.00;;;10.40;93.80;;;;;;21246622;28;20673;-67
2022/04/25 05:37:31;;;;;;;21.60;17.20;;;10.60;93.30;;;;;;21244782;28;20232;-69
2022/04/25 05:47:33;;;;;;;18.10;13.40;;;10.70;93.30;;;;;;21243424;28;20215;-69
2022/04/25 05:57:35;;;;;;;25.90;14.27;;;10.80;93.40;;;;;;21250635;27;20272;-68
2022/04/25 06:07:45;;;;;;;26.83;18.33;;;10.80;93.30;;;;;;21259627;27;20229;-69
2022/04/25 06:17:47;;;;;;;17.77;13.80;;;11.00;93.40;;;;;;21259266;27;20231;-67
2022/04/25 06:27:49;;;;;;;17.97;14.30;;;11.00;93.50;;;;;;21258489;27;20207;-70
2022/04/25 06:37:51;;;;;;;30.50;15.90;;;11.40;93.10;;;;;;21257296;27;20255;-66
2022/04/25 06:47:53;;;;;;;27.33;14.33;;;11.50;93.30;;;;;;21256665;27;20301;-69
2022/04/25 06:57:55;;;;;;;19.27;13.17;;;11.60;92.50;;;;;;21255811;27;20246;-69
2022/04/25 07:07:57;;;;;;;24.10;17.03;;;11.70;92.70;;;;;;21253998;27;20199;-71
2022/04/25 07:18:00;;;;;;;23.20;13.37;;;12.10;92.00;;;;;;21235669;27;20705;-68
2022/04/25 07:38:22;;;;;;;19.57;15.23;;;12.50;91.80;;;;;;21252193;27;20745;-68
2022/04/25 07:48:25;;;;;;;28.50;17.83;;;12.60;91.60;;;;;;21251420;27;20247;-70
2022/04/25 07:58:26;;;;;;;21.20;14.90;;;12.80;91.20;;;;;;21250487;27;20234;-69
2022/04/25 08:08:28;;;;;;;17.30;13.73;;;12.80;90.90;;;;;;21249348;27;20243;-69
2022/04/25 08:18:30;;;;;;;21.70;14.73;;;13.10;90.70;;;;;;21247450;27;20567;-69
2022/04/25 08:28:45;;;;;;;18.00;13.07;;;13.30;90.50;;;;;;21183719;27;20954;-70
2022/04/25 08:39:04;;;;;;;16.37;11.03;;;13.40;90.40;;;;;;21150362;28;20772;-68
2022/04/25 08:49:06;;;;;;;12.93;11.07;;;13.90;89.60;;;;;;21148662;28;20613;-69
2022/04/25 08:59:09;;;;;;;16.67;10.60;;;14.20;88.40;;;;;;21148975;28;20273;-69
2022/04/25 09:09:10;;;;;;;14.30;7.93;;;14.30;88.30;;;;;;21148639;28;20198;-69
2022/04/25 09:19:12;;;;;;;10.23;7.70;;;14.80;86.00;;;;;;21146546;28;20277;-69
2022/04/25 09:29:14;;;;;;;9.93;8.33;;;14.90;85.90;;;;;;21146231;28;20629;-69
2022/04/25 09:39:31;;;;;;;9.10;7.70;;;15.30;82.70;;;;;;21093931;28;20326;-68
2022/04/25 09:49:33;;;;;;;8.07;7.27;;;15.60;82.00;;;;;;21087552;28;20218;-69
2022/04/25 09:59:46;;;;;;;7.53;6.80;;;15.80;80.70;;;;;;21087774;28;20632;-69
2022/04/25 10:09:49;;;;;;;7.47;6.10;;;15.90;79.60;;;;;;21087096;28;20210;-69
2022/04/25 10:19:51;;;;;;;6.40;5.80;;;16.10;78.60;;;;;;21085315;28;20330;-68
2022/04/25 10:29:56;;;;;;;11.03;7.63;;;15.90;77.40;;;;;;21085358;28;20407;-70
2022/04/25 10:39:59;;;;;;;7.97;6.73;;;16.00;77.70;;;;;;21084600;28;20287;-67
2022/04/25 10:50:07;;;;;;;8.53;6.27;;;16.00;77.60;;;;;;21083919;28;20270;-67
2022/04/25 11:00:37;;;;;;;6.17;5.50;;;16.10;76.50;;;;;;21083271;28;20598;-70
2022/04/25 11:10:45;;;;;;;6.33;5.33;;;16.10;76.10;;;;;;21083938;28;20203;-71
2022/04/25 11:20:58;;;;;;;5.50;4.60;;;16.50;75.50;;;;;;21081764;28;20639;-71
2022/04/25 11:31:15;;;;;;;6.07;5.20;;;17.10;73.70;;;;;;21080528;28;20206;-69
2022/04/25 11:41:17;;;;;;;10.60;4.97;;;17.40;70.90;;;;;;21079764;28;20235;-70
2022/04/25 11:51:37;;;;;;;6.13;5.20;;;17.60;70.70;;;;;;21084584;28;20298;-68
2022/04/25 12:01:42;;;;;;;5.90;5.30;;;17.30;69.60;;;;;;21077803;28;20712;-67
2022/04/25 12:22:05;;;;;;;5.60;5.10;;;17.00;69.50;;;;;;21077686;28;20247;-69
2022/04/25 12:32:09;;;;;;;5.03;4.53;;;16.80;70.00;;;;;;21077173;28;20634;-66
2022/04/25 12:42:10;;;;;;;5.20;4.70;;;16.70;69.90;;;;;;21076871;28;20629;-65
2022/04/25 12:52:13;;;;;;;5.10;4.60;;;16.80;70.50;;;;;;21077311;28;20307;-69
2022/04/25 13:02:29;;;;;;;4.77;4.27;;;17.00;69.00;;;;;;21076473;28;20264;-68
2022/04/25 13:12:34;;;;;;;4.37;3.90;;;16.90;69.50;;;;;;21086579;28;20724;-68
2022/04/25 13:22:36;;;;;;;4.27;3.50;;;16.80;68.80;;;;;;21090362;28;20246;-69
2022/04/25 13:32:39;;;;;;;3.73;3.30;;;17.40;68.00;;;;;;21089856;28;20205;-69
2022/04/25 13:42:43;;;;;;;3.53;3.20;;;17.70;68.20;;;;;;21090653;28;20259;-68
2022/04/25 13:52:45;;;;;;;3.63;3.33;;;17.80;65.80;;;;;;21089497;28;20207;-68
2022/04/25 14:03:05;;;;;;;3.27;2.97;;;17.60;64.70;;;;;;21087293;28;20242;-68
2022/04/25 14:13:08;;;;;;;3.67;3.37;;;17.70;64.50;;;;;;21087687;28;20731;-67
2022/04/25 14:23:11;;;;;;;4.80;3.50;;;17.80;63.90;;;;;;21081923;28;20271;-65
2022/04/25 14:33:13;;;;;;;3.70;3.30;;;18.00;63.30;;;;;;21084061;28;20249;-65
2022/04/25 14:43:14;;;;;;;3.63;3.33;;;18.10;63.20;;;;;;21082846;28;20239;-68
2022/04/25 15:03:36;;;;;;;3.83;3.20;;;17.80;61.70;;;;;;21082011;28;20707;-70
2022/04/25 15:13:38;;;;;;;5.23;3.67;;;17.60;62.20;;;;;;21082471;28;20209;-69
2022/04/25 15:23:40;;;;;;;3.97;3.30;;;17.10;62.20;;;;;;21081689;28;20294;-70
2022/04/25 15:33:43;;;;;;;4.67;3.53;;;16.60;63.50;;;;;;21078858;28;20216;-65
2022/04/25 15:43:45;;;;;;;8.13;4.80;;;16.20;66.80;;;;;;21079977;28;20246;-63
2022/04/25 16:04:12;;;;;;;8.60;6.50;;;15.10;79.30;;;;;;21079724;28;20229;-67
2022/04/25 16:14:14;;;;;;;10.77;7.07;;;14.50;85.20;;;;;;21078951;28;20216;-67
2022/04/25 16:24:16;;;;;;;12.03;7.93;;;14.40;86.10;;;;;;21078348;28;20722;-67
2022/04/25 16:34:25;;;;;;;8.40;7.30;;;14.30;90.20;;;;;;21090375;28;20258;-67
2022/04/25 16:44:27;;;;;;;6.50;5.80;;;14.40;91.00;;;;;;21097512;28;20309;-65
2022/04/25 16:54:29;;;;;;;6.10;4.87;;;14.60;91.60;;;;;;21096377;28;20660;-64
2022/04/25 17:04:31;;;;;;;5.03;4.53;;;14.40;92.00;;;;;;21093527;28;20628;-68
2022/04/25 17:14:33;;;;;;;6.60;4.90;;;14.40;92.40;;;;;;21092507;28;20212;-65
2022/04/25 17:24:36;;;;;;;6.00;5.13;;;14.30;92.60;;;;;;21093037;28;20249;-68
